createdAt,value
2018-01-30T00:00:29.030Z,101358.48
2018-01-30T00:02:55.846Z,101375.97
2018-01-30T00:05:21.680Z,101376.01
2018-01-30T00:07:47.470Z,101375.77
2018-01-30T00:10:13.279Z,101377.41
2018-01-30T00:12:39.069Z,101379.49
2018-01-30T00:15:04.916Z,101386.99
2018-01-30T00:17:30.706Z,101393.58
2018-01-30T00:19:56.506Z,101389.84
2018-01-30T00:22:22.303Z,101391.16
2018-01-30T00:24:48.125Z,101393.25
2018-01-30T00:27:13.913Z,101397.72
2018-01-30T00:29:39.749Z,101401.86
2018-01-30T00:32:06.529Z,101407.31
2018-01-30T00:34:32.322Z,101412.09
2018-01-30T00:36:58.155Z,101401.92
2018-01-30T00:39:23.942Z,101406.01
2018-01-30T00:41:50.605Z,101426.59
2018-01-30T00:44:16.435Z,101431.91
2018-01-30T00:46:43.202Z,101433.54
2018-01-30T00:49:09.926Z,101433.65
2018-01-30T00:51:35.718Z,101442.53
2018-01-30T00:54:01.507Z,101449.28
2018-01-30T00:56:27.303Z,101455.37
2018-01-30T00:58:53.125Z,101466.38
2018-01-30T01:01:19.086Z,101472.44
2018-01-30T01:03:44.902Z,101474.28
2018-01-30T01:06:11.678Z,101475.34
2018-01-30T01:08:38.309Z,101488.16
2018-01-30T01:11:05.098Z,101491.03
2018-01-30T01:13:30.951Z,101505.69
2018-01-30T01:15:56.740Z,101511.01
2018-01-30T01:18:22.539Z,101520.95
2018-01-30T01:20:48.361Z,101520.31
2018-01-30T01:23:14.156Z,101518.88
2018-01-30T01:25:39.946Z,101519.41
2018-01-30T01:28:05.733Z,101533.06
2018-01-30T01:30:32.409Z,101528.72
2018-01-30T01:32:58.205Z,101527.11
2018-01-30T01:35:24.936Z,101531.73
2018-01-30T01:37:51.685Z,101523.39
2018-01-30T01:40:17.510Z,101526.38
2018-01-30T01:42:43.348Z,101537.88
2018-01-30T01:45:09.968Z,101546.11
2018-01-30T01:47:35.761Z,101552.41
2018-01-30T01:50:01.546Z,101555.86
2018-01-30T01:52:27.378Z,101568.34
2018-01-30T01:54:53.162Z,101560.30
2018-01-30T01:57:18.953Z,101566.66
2018-01-30T01:59:44.737Z,101564.15
2018-01-30T02:02:10.571Z,101563.31
2018-01-30T02:04:36.365Z,101573.07
2018-01-30T02:07:02.218Z,101581.02
2018-01-30T02:09:28.145Z,101569.68
2018-01-30T02:11:53.937Z,101588.75
2018-01-30T02:14:19.731Z,101583.16
2018-01-30T02:16:45.530Z,101579.46
2018-01-30T02:19:11.326Z,101576.39
2018-01-30T02:21:37.132Z,101588.75
2018-01-30T02:24:02.990Z,101584.80
2018-01-30T02:26:28.788Z,101598.41
2018-01-30T02:28:54.573Z,101615.31
2018-01-30T02:31:20.370Z,101619.13
2018-01-30T02:33:46.200Z,101623.82
2018-01-30T02:36:12.005Z,101620.58
2018-01-30T02:38:37.798Z,101610.69
2018-01-30T02:41:03.600Z,101628.88
2018-01-30T02:43:29.384Z,101621.42
2018-01-30T02:45:55.211Z,101619.27
2018-01-30T02:48:21.007Z,101633.00
2018-01-30T02:50:46.844Z,101640.22
2018-01-30T02:53:12.789Z,101634.33
2018-01-30T02:55:38.625Z,101632.88
2018-01-30T02:58:04.459Z,101637.64
2018-01-30T03:00:30.256Z,101625.27
2018-01-30T03:02:56.073Z,101642.42
2018-01-30T03:05:21.870Z,101636.13
2018-01-30T03:07:47.664Z,101634.88
2018-01-30T03:10:13.462Z,101639.30
2018-01-30T03:12:39.253Z,101644.16
2018-01-30T03:15:05.041Z,101645.73
2018-01-30T03:17:30.838Z,101648.91
2018-01-30T03:19:56.682Z,101647.05
2018-01-30T03:22:22.470Z,101648.56
2018-01-30T03:24:48.281Z,101661.77
2018-01-30T03:27:14.117Z,101656.48
2018-01-30T03:29:39.921Z,101664.88
2018-01-30T03:32:05.717Z,101672.69
2018-01-30T03:34:31.522Z,101673.11
2018-01-30T03:36:57.323Z,101672.39
2018-01-30T03:39:23.114Z,101682.12
2018-01-30T03:41:48.914Z,101682.59
2018-01-30T03:44:14.710Z,101689.75
2018-01-30T03:46:40.525Z,101689.86
2018-01-30T03:49:06.317Z,101692.06
2018-01-30T03:51:32.109Z,101687.02
2018-01-30T03:53:57.910Z,101676.32
2018-01-30T03:56:23.730Z,101682.81
2018-01-30T03:58:49.535Z,101687.80
2018-01-30T04:01:15.333Z,101680.04
2018-01-30T04:03:41.126Z,101686.28
2018-01-30T04:06:06.957Z,101680.91
2018-01-30T04:08:32.757Z,101689.94
2018-01-30T04:10:58.593Z,101697.92
2018-01-30T04:13:24.430Z,101694.97
2018-01-30T04:15:50.358Z,101700.11
2018-01-30T04:18:16.145Z,101703.98
2018-01-30T04:20:42.093Z,101713.25
2018-01-30T04:23:07.887Z,101712.49
2018-01-30T04:25:33.730Z,101715.81
2018-01-30T04:27:59.533Z,101714.42
2018-01-30T04:30:25.328Z,101722.66
2018-01-30T04:32:51.191Z,101725.96
2018-01-30T04:35:16.985Z,101730.29
2018-01-30T04:37:42.815Z,101733.38
2018-01-30T04:40:08.606Z,101728.08
2018-01-30T04:42:34.401Z,101721.81
2018-01-30T04:45:00.198Z,101723.56
2018-01-30T04:47:26.028Z,101736.98
2018-01-30T04:49:51.826Z,101738.14
2018-01-30T04:52:17.656Z,101731.48
2018-01-30T04:54:43.504Z,101733.84
2018-01-30T04:57:09.295Z,101734.47
2018-01-30T04:59:35.092Z,101732.20
2018-01-30T05:02:00.888Z,101735.80
2018-01-30T05:04:26.741Z,101739.02
2018-01-30T05:06:52.578Z,101728.39
2018-01-30T05:09:18.374Z,101720.07
2018-01-30T05:11:44.199Z,101730.72
2018-01-30T05:14:10.026Z,101735.52
2018-01-30T05:16:35.865Z,101737.45
2018-01-30T05:19:01.673Z,101738.77
2018-01-30T05:21:27.472Z,101742.27
2018-01-30T05:23:53.265Z,101742.27
2018-01-30T05:26:19.112Z,101753.09
2018-01-30T05:28:44.913Z,101747.59
2018-01-30T05:31:10.735Z,101742.97
2018-01-30T05:33:36.571Z,101743.97
2018-01-30T05:36:02.420Z,101742.79
2018-01-30T05:38:28.210Z,101751.34
2018-01-30T05:40:54.018Z,101745.74
2018-01-30T05:43:19.815Z,101749.15
2018-01-30T05:45:45.614Z,101744.39
2018-01-30T05:48:11.409Z,101750.75
2018-01-30T05:50:37.242Z,101761.33
2018-01-30T05:53:03.035Z,101770.09
2018-01-30T05:55:28.878Z,101767.02
2018-01-30T05:57:54.672Z,101768.50
2018-01-30T06:00:20.484Z,101776.23
2018-01-30T06:02:46.295Z,101771.94
2018-01-30T06:05:12.104Z,101777.88
2018-01-30T06:07:37.892Z,101782.53
2018-01-30T06:10:03.684Z,101793.81
2018-01-30T06:12:29.505Z,101786.23
2018-01-30T06:14:55.314Z,101785.94
2018-01-30T06:17:21.150Z,101790.16
2018-01-30T06:19:46.961Z,101798.02
2018-01-30T06:22:12.745Z,101803.20
2018-01-30T06:24:38.525Z,101809.47
2018-01-30T06:27:04.321Z,101805.70
2018-01-30T06:29:30.113Z,101806.55
2018-01-30T06:31:55.909Z,101807.95
2018-01-30T06:34:21.698Z,101810.42
2018-01-30T06:36:47.498Z,101826.03
2018-01-30T06:39:13.429Z,101828.06
2018-01-30T06:41:39.222Z,101820.75
2018-01-30T06:44:05.017Z,101832.86
2018-01-30T06:46:30.815Z,101838.71
2018-01-30T06:48:56.601Z,101843.91
2018-01-30T06:51:22.381Z,101849.66
2018-01-30T06:53:48.162Z,101846.23
2018-01-30T06:56:14.086Z,101860.08
2018-01-30T06:58:39.895Z,101871.88
2018-01-30T07:01:05.703Z,101871.79
2018-01-30T07:03:31.754Z,101873.88
2018-01-30T07:05:57.547Z,101874.06
2018-01-30T07:08:23.330Z,101881.27
2018-01-30T07:10:49.158Z,101890.05
2018-01-30T07:13:14.957Z,101897.78
2018-01-30T07:15:40.910Z,101887.92
2018-01-30T07:18:06.705Z,101893.38
2018-01-30T07:20:32.540Z,101894.13
2018-01-30T07:22:58.333Z,101900.34
2018-01-30T07:25:24.157Z,101899.07
2018-01-30T07:27:50.003Z,101907.52
2018-01-30T07:30:15.816Z,101906.42
2018-01-30T07:32:41.697Z,101917.06
2018-01-30T07:35:07.498Z,101915.23
2018-01-30T07:37:33.338Z,101922.69
2018-01-30T07:39:59.164Z,101926.78
2018-01-30T07:42:25.898Z,101928.12
2018-01-30T07:44:51.722Z,101928.52
2018-01-30T07:47:17.514Z,101932.24
2018-01-30T07:49:43.355Z,101935.16
2018-01-30T07:52:09.147Z,101938.81
2018-01-30T07:54:34.977Z,101932.83
2018-01-30T07:57:01.074Z,101944.17
2018-01-30T07:59:26.973Z,101944.50
2018-01-30T08:01:52.807Z,101950.45
2018-01-30T08:04:18.714Z,101957.20
2018-01-30T08:06:44.504Z,101959.79
2018-01-30T08:09:10.337Z,101959.55
2018-01-30T08:11:36.126Z,101958.52
2018-01-30T08:14:02.019Z,101964.50
2018-01-30T08:16:27.871Z,101966.05
2018-01-30T08:18:54.622Z,101967.80
2018-01-30T08:21:20.631Z,101958.81
2018-01-30T08:23:46.518Z,101966.20
2018-01-30T08:26:12.333Z,101958.07
2018-01-30T08:28:38.121Z,101963.28
2018-01-30T08:31:03.949Z,101969.73
2018-01-30T08:33:29.883Z,101966.70
2018-01-30T08:35:55.675Z,101968.78
2018-01-30T08:38:21.466Z,101968.09
2018-01-30T08:40:47.256Z,101970.54
2018-01-30T08:43:13.110Z,101980.13
2018-01-30T08:45:38.921Z,101974.62
2018-01-30T08:48:04.749Z,101975.72
2018-01-30T08:50:30.531Z,101990.77
2018-01-30T08:52:56.350Z,101989.35
2018-01-30T08:55:22.168Z,101991.01
2018-01-30T08:57:48.093Z,101994.88
2018-01-30T09:00:13.935Z,101997.19
2018-01-30T09:02:39.764Z,102006.52
2018-01-30T09:05:05.562Z,102009.08
2018-01-30T09:07:31.343Z,102002.78
2018-01-30T09:09:57.133Z,102000.61
2018-01-30T09:12:22.930Z,102003.73
2018-01-30T09:14:48.725Z,102010.94
2018-01-30T09:17:14.506Z,101998.03
2018-01-30T09:19:40.374Z,102009.89
2018-01-30T09:22:06.162Z,102001.11
2018-01-30T09:24:32.000Z,102011.09
2018-01-30T09:26:57.781Z,102021.44
2018-01-30T09:29:23.785Z,102017.15
2018-01-30T09:31:49.612Z,102022.08
2018-01-30T09:34:15.400Z,102029.37
2018-01-30T09:36:41.200Z,102024.18
2018-01-30T09:39:07.019Z,102026.22
2018-01-30T09:41:32.820Z,102022.63
2018-01-30T09:43:58.645Z,102024.47
2018-01-30T09:46:24.434Z,102027.37
2018-01-30T09:48:50.231Z,102027.37
2018-01-30T09:51:16.020Z,102027.84
2018-01-30T09:53:41.796Z,102034.09
2018-01-30T09:56:07.590Z,102030.26
2018-01-30T09:58:33.380Z,102027.18
2018-01-30T10:00:59.159Z,102038.22
2018-01-30T10:03:25.022Z,102044.50
2018-01-30T10:05:50.926Z,102047.93
2018-01-30T10:08:16.865Z,102042.93
2018-01-30T10:10:42.672Z,102038.80
2018-01-30T10:13:08.848Z,102043.05
2018-01-30T10:15:34.637Z,102042.83
2018-01-30T10:18:00.421Z,102039.41
2018-01-30T10:20:26.208Z,102036.31
2018-01-30T10:22:52.010Z,102044.66
2018-01-30T10:25:18.265Z,102046.12
2018-01-30T10:27:44.049Z,102046.07
2018-01-30T10:30:09.979Z,102043.49
2018-01-30T10:32:35.756Z,102050.28
2018-01-30T10:35:01.541Z,102047.97
2018-01-30T10:37:27.333Z,102051.58
2018-01-30T10:39:53.113Z,102052.56
2018-01-30T10:42:18.916Z,102056.52
2018-01-30T10:44:44.701Z,102048.47
2018-01-30T10:47:10.558Z,102055.20
2018-01-30T10:49:36.509Z,102057.39
2018-01-30T10:52:02.333Z,102051.55
2018-01-30T10:54:28.670Z,102052.05
2018-01-30T10:56:54.485Z,102044.67
2018-01-30T10:59:20.304Z,102040.41
2018-01-30T11:01:46.098Z,102045.12
2018-01-30T11:04:12.047Z,102048.27
2018-01-30T11:06:38.618Z,102037.21
2018-01-30T11:09:04.479Z,102044.59
2018-01-30T11:11:30.301Z,102039.94
2018-01-30T11:13:56.171Z,102040.01
2018-01-30T11:16:22.550Z,102051.88
2018-01-30T11:18:49.266Z,102055.05
2018-01-30T11:21:15.939Z,102054.00
2018-01-30T11:23:41.761Z,102056.47
2018-01-30T11:26:08.572Z,102065.39
2018-01-30T11:28:35.394Z,102066.52
2018-01-30T11:31:01.225Z,102080.02
2018-01-30T11:33:27.978Z,102077.16
2018-01-30T11:35:54.761Z,102078.01
2018-01-30T11:38:21.433Z,102088.63
2018-01-30T11:40:47.259Z,102090.68
2018-01-30T11:43:14.069Z,102097.83
2018-01-30T11:45:40.613Z,102090.52
2018-01-30T11:48:06.409Z,102082.98
2018-01-30T11:50:32.203Z,102072.62
2018-01-30T11:52:58.877Z,102079.22
2018-01-30T11:55:24.656Z,102084.14
2018-01-30T11:57:50.446Z,102075.05
2018-01-30T12:00:17.304Z,102082.33
2018-01-30T12:02:43.138Z,102078.12
2018-01-30T12:05:08.938Z,102078.28
2018-01-30T12:07:34.717Z,102082.59
2018-01-30T12:10:00.502Z,102080.50
2018-01-30T12:12:26.300Z,102086.41
2018-01-30T12:14:53.037Z,102089.69
2018-01-30T12:17:18.905Z,102083.81
2018-01-30T12:19:44.732Z,102067.34
2018-01-30T12:22:10.568Z,102073.08
2018-01-30T12:24:36.393Z,102062.96
2018-01-30T12:27:02.998Z,102052.49
2018-01-30T12:29:29.930Z,102050.47
2018-01-30T12:31:55.714Z,102053.38
2018-01-30T12:34:22.565Z,102042.52
2018-01-30T12:36:49.064Z,102049.86
2018-01-30T12:39:14.841Z,102037.70
2018-01-30T12:41:40.676Z,102031.99
2018-01-30T12:44:06.649Z,102035.44
2018-01-30T12:46:32.438Z,102035.05
2018-01-30T12:48:58.222Z,102022.96
2018-01-30T12:51:24.011Z,102026.95
2018-01-30T12:53:49.795Z,102018.79
2018-01-30T12:56:15.636Z,102015.18
2018-01-30T12:58:41.420Z,102024.95
2018-01-30T13:01:07.204Z,102019.38
2018-01-30T13:03:32.997Z,102016.40
2018-01-30T13:05:58.777Z,102018.31
2018-01-30T13:08:24.566Z,102018.94
2018-01-30T13:10:50.349Z,102016.22
2018-01-30T13:13:16.149Z,102014.25
2018-01-30T13:15:41.930Z,102012.96
2018-01-30T13:18:07.721Z,102005.66
2018-01-30T13:20:33.519Z,102008.22
2018-01-30T13:22:59.307Z,102009.00
2018-01-30T13:25:25.121Z,102010.04
2018-01-30T13:27:50.910Z,102007.30
2018-01-30T13:30:16.749Z,102004.95
2018-01-30T13:32:42.538Z,102008.57
2018-01-30T13:35:08.411Z,102007.42
2018-01-30T13:37:34.204Z,102013.73
2018-01-30T13:40:00.009Z,102011.49
2018-01-30T13:42:25.797Z,102011.27
2018-01-30T13:44:51.585Z,102011.84
2018-01-30T13:47:17.370Z,102014.83
2018-01-30T13:49:43.160Z,102021.30
2018-01-30T13:52:08.950Z,102018.12
2018-01-30T13:54:34.737Z,102022.11
2018-01-30T13:57:00.534Z,102023.58
2018-01-30T13:59:26.328Z,102017.97
2018-01-30T14:01:52.118Z,102023.93
2018-01-30T14:04:17.901Z,102014.33
2018-01-30T14:06:43.694Z,102014.78
2018-01-30T14:09:09.484Z,102024.95
2018-01-30T14:11:35.280Z,102026.80
2018-01-30T14:14:01.113Z,102030.03
2018-01-30T14:16:26.906Z,102037.80
2018-01-30T14:18:52.722Z,102037.06
2018-01-30T14:21:18.511Z,102030.11
2018-01-30T14:23:44.293Z,102028.52
2018-01-30T14:26:10.077Z,102026.09
2018-01-30T14:28:35.861Z,102026.32
2018-01-30T14:31:01.823Z,102031.38
2018-01-30T14:33:27.609Z,102035.73
2018-01-30T14:35:53.430Z,102032.41
2018-01-30T14:38:19.317Z,102027.37
2018-01-30T14:40:45.278Z,102029.03
2018-01-30T14:43:11.110Z,102034.88
2018-01-30T14:45:36.895Z,102035.52
2018-01-30T14:48:02.681Z,102033.60
2018-01-30T14:50:28.468Z,102032.18
2018-01-30T14:52:54.249Z,102025.38
2018-01-30T14:55:20.068Z,102031.77
2018-01-30T14:57:45.859Z,102016.13
2018-01-30T15:00:11.658Z,102027.02
2018-01-30T15:02:37.454Z,102039.07
2018-01-30T15:05:03.248Z,102038.59
2018-01-30T15:07:29.041Z,102038.92
2018-01-30T15:09:54.854Z,102039.61
2018-01-30T15:12:21.565Z,102038.31
2018-01-30T15:14:47.351Z,102031.78
2018-01-30T15:17:13.146Z,102028.87
2018-01-30T15:19:38.970Z,102025.82
2018-01-30T15:22:04.761Z,102026.95
2018-01-30T15:24:30.620Z,102025.20
2018-01-30T15:26:56.424Z,102026.72
2018-01-30T15:29:22.237Z,102030.18
2018-01-30T15:31:48.028Z,102030.76
2018-01-30T15:34:13.822Z,102030.13
2018-01-30T15:36:39.602Z,102028.96
2018-01-30T15:39:05.401Z,102024.08
2018-01-30T15:41:31.192Z,102021.11
2018-01-30T15:43:56.990Z,102016.48
2018-01-30T15:46:22.857Z,102017.05
2018-01-30T15:48:48.646Z,102016.52
2018-01-30T15:51:14.430Z,102015.55
2018-01-30T15:53:40.223Z,102011.12
2018-01-30T15:56:06.094Z,102011.33
2018-01-30T15:58:31.875Z,102010.47
2018-01-30T16:00:57.720Z,102006.60
2018-01-30T16:03:23.509Z,102008.73
2018-01-30T16:05:49.293Z,102013.16
2018-01-30T16:08:15.085Z,102009.34
2018-01-30T16:10:41.163Z,102003.81
2018-01-30T16:13:06.954Z,102011.17
2018-01-30T16:15:32.773Z,102015.89
2018-01-30T16:17:58.558Z,102024.19
2018-01-30T16:20:24.507Z,102022.97
2018-01-30T16:22:51.314Z,102023.70
2018-01-30T16:25:17.215Z,102006.95
2018-01-30T16:27:43.005Z,102006.52
2018-01-30T16:30:08.788Z,102013.95
2018-01-30T16:32:34.654Z,102018.31
2018-01-30T16:35:00.425Z,102034.80
2018-01-30T16:37:26.217Z,102018.27
2018-01-30T16:39:52.038Z,101999.56
2018-01-30T16:42:17.862Z,101985.23
2018-01-30T16:44:43.659Z,102001.67
2018-01-30T16:47:09.488Z,101996.88
2018-01-30T16:49:35.278Z,101995.98
2018-01-30T16:52:01.115Z,101993.34
2018-01-30T16:54:26.897Z,101988.96
2018-01-30T16:56:52.750Z,101997.67
2018-01-30T16:59:18.579Z,101991.92
2018-01-30T17:01:44.361Z,101991.17
2018-01-30T17:04:10.198Z,101985.37
2018-01-30T17:06:35.991Z,101980.55
2018-01-30T17:09:01.815Z,101979.88
2018-01-30T17:11:27.607Z,101984.73
2018-01-30T17:13:53.413Z,101986.75
2018-01-30T17:16:19.197Z,101977.83
2018-01-30T17:18:44.998Z,101975.23
2018-01-30T17:21:10.795Z,101974.11
2018-01-30T17:23:36.585Z,101978.86
2018-01-30T17:26:02.370Z,101975.20
2018-01-30T17:28:28.150Z,101963.27
2018-01-30T17:30:53.935Z,101962.92
2018-01-30T17:33:19.754Z,101964.38
2018-01-30T17:35:45.537Z,101972.97
2018-01-30T17:38:11.360Z,101973.41
2018-01-30T17:40:37.142Z,101974.42
2018-01-30T17:43:02.922Z,101969.34
2018-01-30T17:45:28.705Z,101969.03
2018-01-30T17:47:54.493Z,101961.38
2018-01-30T17:50:20.279Z,101950.14
2018-01-30T17:52:46.129Z,101955.53
2018-01-30T17:55:11.918Z,101952.62
2018-01-30T17:57:37.704Z,101949.48
2018-01-30T18:00:03.534Z,101945.85
2018-01-30T18:02:29.389Z,101958.22
2018-01-30T18:04:55.166Z,101955.20
2018-01-30T18:07:20.958Z,101955.08
2018-01-30T18:09:46.737Z,101956.31
2018-01-30T18:12:12.529Z,101956.05
2018-01-30T18:14:38.314Z,101956.20
2018-01-30T18:17:05.053Z,101963.75
2018-01-30T18:19:30.912Z,101962.39
2018-01-30T18:21:56.694Z,101962.41
2018-01-30T18:24:22.477Z,101960.59
2018-01-30T18:26:48.263Z,101960.74
2018-01-30T18:29:15.950Z,101956.95
2018-01-30T18:31:41.750Z,101949.10
2018-01-30T18:34:07.573Z,101955.28
2018-01-30T18:36:33.374Z,101970.06
2018-01-30T18:38:59.161Z,101958.49
2018-01-30T18:41:24.949Z,101951.06
2018-01-30T18:43:50.729Z,101962.78
2018-01-30T18:46:16.521Z,101962.31
2018-01-30T18:48:42.303Z,101959.98
2018-01-30T18:51:08.098Z,101955.60
2018-01-30T18:53:33.891Z,101959.66
2018-01-30T18:55:59.681Z,101961.51
2018-01-30T18:58:25.470Z,101962.93
2018-01-30T19:00:51.268Z,101963.41
2018-01-30T19:03:17.081Z,101956.07
2018-01-30T19:05:42.869Z,101959.74
2018-01-30T19:08:08.694Z,101961.02
2018-01-30T19:10:34.477Z,101965.28
2018-01-30T19:13:00.311Z,101953.13
2018-01-30T19:15:26.089Z,101962.69
2018-01-30T19:17:51.976Z,101961.19
2018-01-30T19:20:17.770Z,101969.44
2018-01-30T19:22:43.554Z,101963.04
2018-01-30T19:25:09.355Z,101971.65
2018-01-30T19:27:35.259Z,101966.74
2018-01-30T19:30:01.048Z,101969.64
2018-01-30T19:32:26.888Z,101971.64
2018-01-30T19:34:52.673Z,101974.88
2018-01-30T19:37:18.526Z,101972.56
2018-01-30T19:39:44.315Z,101978.47
2018-01-30T19:42:10.137Z,101979.72
2018-01-30T19:44:36.122Z,101977.12
2018-01-30T19:47:01.908Z,101983.16
2018-01-30T19:49:28.082Z,101973.81
2018-01-30T19:51:53.970Z,101977.24
2018-01-30T19:54:19.766Z,101974.02
2018-01-30T19:56:45.558Z,101978.63
2018-01-30T19:59:11.341Z,101974.72
2018-01-30T20:01:37.166Z,101970.48
2018-01-30T20:04:02.962Z,101971.33
2018-01-30T20:06:29.068Z,101976.61
2018-01-30T20:08:55.362Z,101970.44
2018-01-30T20:11:23.555Z,101968.52
2018-01-30T20:13:50.411Z,101962.56
2018-01-30T20:16:19.634Z,101951.48
2018-01-30T20:18:49.191Z,101949.47
2018-01-30T20:24:11.266Z,101927.96
2018-01-30T20:26:45.233Z,101925.25
2018-01-30T20:29:11.478Z,101931.84
2018-01-30T20:31:37.408Z,101932.05
2018-01-30T20:34:03.259Z,101926.71
2018-01-30T20:36:31.222Z,101918.83
2018-01-30T20:39:01.372Z,101921.11
2018-01-30T20:41:27.234Z,101919.62
2018-01-30T20:43:53.205Z,101915.82
2018-01-30T20:46:18.991Z,101916.27
2018-01-30T20:48:45.530Z,101908.63
2018-01-30T20:51:11.326Z,101907.34
2018-01-30T20:53:40.674Z,101894.19
2018-01-30T20:56:14.453Z,101886.41
2018-01-30T20:58:42.514Z,101882.30
2018-01-30T21:01:10.023Z,101883.52
2018-01-30T21:03:38.760Z,101886.56
2018-01-30T21:06:14.077Z,101889.12
2018-01-30T21:08:42.040Z,101883.95
2018-01-30T21:11:10.000Z,101887.26
2018-01-30T21:13:40.304Z,101884.52
2018-01-30T21:16:09.848Z,101885.77
2018-01-30T21:18:35.709Z,101885.75
2018-01-30T21:21:01.576Z,101878.77
2018-01-30T21:23:27.370Z,101876.25
2018-01-30T21:25:53.168Z,101880.33
2018-01-30T21:28:18.991Z,101874.70
2018-01-30T21:30:44.873Z,101869.70
2018-01-30T21:33:10.747Z,101869.30
2018-01-30T21:35:36.536Z,101867.20
2018-01-30T21:38:02.354Z,101863.25
2018-01-30T21:40:28.174Z,101854.17
2018-01-30T21:42:54.166Z,101854.80
2018-01-30T21:45:20.054Z,101847.89
2018-01-30T21:47:46.283Z,101851.72
2018-01-30T21:50:12.193Z,101851.89
2018-01-30T21:52:37.977Z,101850.78
2018-01-30T21:55:03.846Z,101848.89
2018-01-30T21:57:29.635Z,101849.38
2018-01-30T21:59:55.462Z,101844.93
2018-01-30T22:02:21.289Z,101837.65
2018-01-30T22:04:47.072Z,101835.84
2018-01-30T22:07:12.874Z,101831.52
2018-01-30T22:09:38.663Z,101834.11
2018-01-30T22:12:04.453Z,101836.50
2018-01-30T22:14:30.238Z,101825.65
2018-01-30T22:16:56.073Z,101828.73
2018-01-30T22:19:21.866Z,101828.42
2018-01-30T22:21:47.697Z,101814.29
2018-01-30T22:24:13.494Z,101818.33
2018-01-30T22:26:39.366Z,101818.47
2018-01-30T22:29:05.190Z,101815.05
2018-01-30T22:31:30.966Z,101808.73
2018-01-30T22:33:56.751Z,101807.30
2018-01-30T22:36:22.705Z,101809.26
2018-01-30T22:38:48.490Z,101809.43
2018-01-30T22:41:14.294Z,101807.20
2018-01-30T22:43:40.072Z,101801.44
2018-01-30T22:46:05.853Z,101792.00
